createdAt,value
2018-09-12T00:01:03.402Z,5.00
2018-09-12T00:03:31.617Z,4.13
2018-09-12T00:05:59.870Z,5.50
2018-09-12T00:08:28.126Z,3.63
2018-09-12T00:10:56.443Z,4.57
2018-09-12T00:13:24.864Z,5.47
2018-09-12T00:15:53.110Z,4.60
2018-09-12T00:18:21.572Z,5.20
2018-09-12T00:20:49.896Z,6.07
2018-09-12T00:25:57.782Z,5.70
2018-09-12T00:28:26.144Z,5.07
2018-09-12T00:30:54.380Z,5.43
2018-09-12T00:33:22.634Z,3.33
2018-09-12T00:35:50.967Z,5.57
2018-09-12T00:38:19.215Z,5.43
2018-09-12T00:40:47.429Z,5.30
2018-09-12T00:43:15.685Z,5.90
2018-09-12T00:45:50.174Z,6.40
2018-09-12T00:48:18.425Z,6.90
2018-09-12T00:50:46.702Z,5.00
2018-09-12T00:53:14.918Z,6.23
2018-09-12T00:55:43.131Z,4.73
2018-09-12T00:58:11.428Z,6.17
2018-09-12T01:00:39.625Z,3.07
2018-09-12T01:03:07.872Z,6.77
2018-09-12T01:05:40.502Z,3.60
2018-09-12T01:08:09.467Z,4.97
2018-09-12T01:10:37.709Z,4.43
2018-09-12T01:13:05.999Z,4.40
2018-09-12T01:15:34.284Z,4.83
2018-09-12T01:18:02.486Z,5.33
2018-09-12T01:20:30.895Z,3.03
2018-09-12T01:22:59.355Z,6.57
2018-09-12T01:25:27.608Z,4.63
2018-09-12T01:27:57.859Z,3.40
2018-09-12T01:30:26.453Z,4.13
2018-09-12T01:32:56.237Z,5.90
2018-09-12T01:35:24.592Z,4.10
2018-09-12T01:37:52.824Z,5.10
2018-09-12T01:40:21.048Z,5.90
2018-09-12T01:42:49.323Z,3.33
2018-09-12T01:45:19.049Z,5.07
2018-09-12T01:47:47.686Z,5.40
2018-09-12T01:50:16.047Z,6.47
2018-09-12T01:52:44.595Z,4.33
2018-09-12T01:55:12.836Z,5.70
2018-09-12T01:57:41.116Z,5.17
2018-09-12T02:00:13.383Z,4.60
2018-09-12T02:02:41.595Z,4.80
2018-09-12T02:05:09.818Z,4.93
2018-09-12T02:07:38.697Z,5.77
2018-09-12T02:10:08.507Z,4.37
2018-09-12T02:12:36.811Z,5.63
2018-09-12T02:15:05.575Z,4.97
2018-09-12T02:17:33.845Z,3.17
2018-09-12T02:20:02.222Z,4.43
2018-09-12T02:22:30.526Z,6.60
2018-09-12T02:24:58.752Z,4.27
2018-09-12T02:27:27.090Z,6.80
2018-09-12T02:29:55.346Z,4.20
2018-09-12T02:32:23.546Z,7.17
2018-09-12T02:34:51.779Z,4.40
2018-09-12T02:37:20.055Z,4.33
2018-09-12T02:39:48.350Z,6.00
2018-09-12T02:42:16.650Z,7.40
2018-09-12T02:44:44.982Z,6.50
2018-09-12T02:47:18.518Z,4.77
2018-09-12T02:49:46.790Z,3.67
2018-09-12T02:52:15.069Z,3.40
2018-09-12T02:54:43.347Z,6.00
2018-09-12T02:57:11.752Z,5.47
2018-09-12T02:59:39.998Z,4.73
2018-09-12T03:02:08.345Z,4.60
2018-09-12T03:04:37.259Z,3.43
2018-09-12T03:07:05.526Z,4.30
2018-09-12T03:09:33.782Z,3.33
2018-09-12T03:12:01.990Z,5.37
2018-09-12T03:14:30.223Z,4.80
2018-09-12T03:16:58.448Z,5.17
2018-09-12T03:19:26.718Z,4.27
2018-09-12T03:21:54.985Z,5.60
2018-09-12T03:24:23.249Z,5.27
2018-09-12T03:26:51.507Z,5.50
2018-09-12T03:29:19.743Z,6.47
2018-09-12T03:31:48.038Z,5.73
2018-09-12T03:34:16.267Z,7.00
2018-09-12T03:36:44.514Z,4.27
2018-09-12T03:39:12.871Z,2.90
2018-09-12T03:41:41.794Z,4.40
2018-09-12T03:44:11.369Z,4.83
2018-09-12T03:46:39.965Z,6.33
2018-09-12T03:49:08.175Z,4.50
2018-09-12T03:51:36.599Z,7.27
2018-09-12T03:54:04.847Z,4.20
2018-09-12T03:56:33.126Z,4.70
2018-09-12T03:59:01.369Z,7.10
2018-09-12T04:01:29.600Z,5.67
2018-09-12T04:03:57.820Z,7.97
2018-09-12T04:06:26.039Z,4.37
2018-09-12T04:08:54.246Z,3.57
2018-09-12T04:11:22.462Z,6.37
2018-09-12T04:13:51.406Z,4.00
2018-09-12T04:16:19.597Z,6.63
2018-09-12T04:18:47.832Z,6.67
2018-09-12T04:21:16.049Z,6.93
2018-09-12T04:23:44.307Z,6.70
2018-09-12T04:26:12.567Z,7.20
2018-09-12T04:28:41.201Z,4.77
2018-09-12T04:31:09.422Z,4.97
2018-09-12T04:33:37.647Z,5.10
2018-09-12T04:36:06.105Z,3.43
2018-09-12T04:38:34.810Z,5.67
2018-09-12T04:41:03.066Z,4.87
2018-09-12T04:43:31.347Z,6.67
2018-09-12T04:45:59.602Z,7.87
2018-09-12T04:48:27.852Z,4.47
2018-09-12T04:50:56.109Z,6.73
2018-09-12T04:53:24.353Z,6.27
2018-09-12T04:55:52.594Z,6.07
2018-09-12T04:58:20.834Z,7.93
2018-09-12T05:00:49.072Z,9.93
2018-09-12T05:03:17.348Z,10.03
2018-09-12T05:05:45.658Z,5.50
2018-09-12T05:08:13.900Z,5.20
2018-09-12T05:10:42.239Z,5.47
2018-09-12T05:13:10.520Z,6.53
2018-09-12T05:15:38.770Z,7.77
2018-09-12T05:18:07.043Z,8.00
2018-09-12T05:20:35.287Z,7.90
2018-09-12T05:23:03.521Z,8.90
2018-09-12T05:25:31.717Z,4.40
2018-09-12T05:28:00.000Z,8.60
2018-09-12T05:30:28.253Z,4.57
2018-09-12T05:32:56.628Z,5.63
2018-09-12T05:35:24.861Z,7.53
2018-09-12T05:37:53.167Z,7.53
2018-09-12T05:40:21.455Z,5.87
2018-09-12T05:42:49.738Z,8.37
2018-09-12T05:45:18.017Z,10.60
2018-09-12T05:47:46.226Z,6.70
2018-09-12T05:50:14.537Z,9.63
2018-09-12T05:52:42.766Z,10.30
2018-09-12T05:55:11.023Z,9.27
2018-09-12T05:57:39.370Z,6.97
2018-09-12T06:00:08.306Z,9.70
2018-09-12T06:02:36.674Z,7.13
2018-09-12T06:05:05.387Z,15.70
2018-09-12T06:07:33.804Z,9.67
2018-09-12T06:10:02.254Z,14.23
2018-09-12T06:12:30.462Z,9.17
2018-09-12T06:14:58.770Z,8.97
2018-09-12T06:17:27.031Z,9.43
2018-09-12T06:19:55.290Z,5.00
2018-09-12T06:22:23.941Z,7.67
2018-09-12T06:27:26.943Z,5.67
2018-09-12T06:29:55.493Z,8.47
2018-09-12T06:32:23.718Z,8.80
2018-09-12T06:34:51.964Z,11.37
2018-09-12T06:37:20.222Z,8.83
2018-09-12T06:39:48.939Z,7.83
2018-09-12T06:42:17.591Z,7.73
2018-09-12T06:44:49.897Z,7.73
2018-09-12T06:47:18.696Z,9.73
2018-09-12T06:49:48.188Z,7.77
2018-09-12T06:52:18.445Z,6.57
2018-09-12T06:54:47.018Z,7.40
2018-09-12T06:57:15.565Z,9.60
2018-09-12T06:59:44.498Z,9.60
2018-09-12T07:02:13.050Z,6.73
2018-09-12T07:04:41.289Z,6.87
2018-09-12T07:07:09.722Z,8.87
2018-09-12T07:09:38.449Z,6.60
2018-09-12T07:12:06.933Z,6.67
2018-09-12T07:14:35.480Z,7.20
2018-09-12T07:17:04.135Z,7.80
2018-09-12T07:19:32.693Z,7.67
2018-09-12T07:22:01.265Z,8.33
2018-09-12T07:24:29.908Z,12.10
2018-09-12T07:26:58.596Z,8.30
2018-09-12T07:29:27.390Z,10.23
2018-09-12T07:31:55.859Z,9.97
2018-09-12T07:34:24.541Z,12.13
2018-09-12T07:36:53.075Z,10.93
2018-09-12T07:39:21.875Z,7.43
2018-09-12T07:41:50.661Z,7.30
2018-09-12T07:44:19.465Z,8.63
2018-09-12T07:46:47.828Z,7.03
2018-09-12T07:49:16.313Z,9.23
2018-09-12T07:51:50.527Z,8.07
2018-09-12T07:54:18.789Z,8.27
2018-09-12T07:56:47.200Z,6.20
2018-09-12T07:59:15.439Z,5.83
2018-09-12T08:01:43.786Z,8.87
2018-09-12T08:04:12.022Z,7.13
2018-09-12T08:06:40.302Z,5.23
2018-09-12T08:09:10.095Z,6.53
2018-09-12T08:11:38.346Z,6.47
2018-09-12T08:14:06.672Z,6.17
2018-09-12T08:16:35.388Z,7.83
2018-09-12T08:19:03.806Z,6.37
2018-09-12T08:21:32.001Z,3.00
2018-09-12T08:24:00.311Z,4.50
2018-09-12T08:26:28.616Z,5.20
2018-09-12T08:28:57.158Z,3.27
2018-09-12T08:31:25.926Z,2.97
2018-09-12T08:33:54.267Z,4.07
2018-09-12T08:36:22.553Z,2.50
2018-09-12T08:38:50.793Z,3.70
2018-09-12T08:41:19.016Z,7.33
2018-09-12T08:43:47.363Z,6.00
2018-09-12T08:46:15.618Z,3.80
2018-09-12T08:48:43.877Z,4.53
2018-09-12T08:51:12.214Z,2.87
2018-09-12T08:53:40.440Z,2.20
2018-09-12T08:56:09.017Z,5.40
2018-09-12T08:58:37.752Z,3.83
2018-09-12T09:01:06.502Z,2.77
2018-09-12T09:03:34.748Z,4.13
2018-09-12T09:06:02.982Z,3.30
2018-09-12T09:08:31.232Z,4.50
2018-09-12T09:10:59.496Z,7.00
2018-09-12T09:13:27.785Z,4.30
2018-09-12T09:15:56.041Z,4.70
2018-09-12T09:18:25.034Z,5.97
2018-09-12T09:20:53.268Z,4.47
2018-09-12T09:23:21.550Z,3.80
2018-09-12T09:25:49.810Z,6.47
2018-09-12T09:28:18.231Z,3.37
2018-09-12T09:30:46.513Z,8.07
2018-09-12T09:33:15.307Z,7.63
2018-09-12T09:35:43.719Z,4.23
2018-09-12T09:38:12.292Z,4.23
2018-09-12T09:40:40.841Z,6.07
2018-09-12T09:43:11.454Z,3.60
2018-09-12T09:45:40.327Z,4.67
2018-09-12T09:48:08.680Z,3.90
2018-09-12T09:50:37.762Z,4.60
2018-09-12T09:53:06.507Z,5.50
2018-09-12T09:55:34.718Z,4.40
2018-09-12T09:58:03.025Z,6.23
2018-09-12T10:00:36.733Z,8.23
2018-09-12T10:03:10.385Z,4.13
2018-09-12T10:05:44.236Z,3.30
2018-09-12T10:08:17.844Z,5.97
2018-09-12T10:10:46.631Z,5.37
2018-09-12T10:13:15.695Z,3.37
2018-09-12T10:15:43.932Z,4.97
2018-09-12T10:18:12.228Z,4.67
2018-09-12T10:20:40.494Z,5.03
2018-09-12T10:23:15.444Z,4.73
2018-09-12T10:25:43.757Z,3.03
2018-09-12T10:28:12.149Z,5.10
2018-09-12T10:30:40.494Z,5.00
2018-09-12T10:33:09.096Z,4.40
2018-09-12T10:35:37.389Z,5.23
2018-09-12T10:38:05.955Z,4.50
2018-09-12T10:40:34.212Z,3.70
2018-09-12T10:43:02.468Z,2.97
2018-09-12T10:45:31.006Z,4.40
2018-09-12T10:47:59.323Z,3.58
2018-09-12T10:50:27.957Z,3.23
2018-09-12T10:52:56.305Z,5.10
2018-09-12T10:55:24.530Z,4.05
2018-09-12T10:57:52.804Z,6.93
2018-09-12T11:00:21.048Z,4.67
2018-09-12T11:02:49.559Z,3.80
2018-09-12T11:05:17.790Z,5.17
2018-09-12T11:07:46.012Z,7.00
2018-09-12T11:10:14.985Z,5.20
2018-09-12T11:12:43.413Z,4.30
2018-09-12T11:15:11.738Z,4.08
2018-09-12T11:17:40.191Z,3.77
2018-09-12T11:20:08.614Z,4.05
2018-09-12T11:22:36.898Z,4.77
2018-09-12T11:25:05.294Z,7.10
2018-09-12T11:27:33.554Z,6.33
2018-09-12T11:30:08.450Z,4.45
2018-09-12T11:32:36.710Z,6.47
2018-09-12T11:35:04.979Z,6.60
2018-09-12T11:37:33.277Z,5.12
2018-09-12T11:40:01.568Z,4.50
2018-09-12T11:42:29.900Z,5.97
2018-09-12T11:44:58.131Z,5.95
2018-09-12T11:47:26.391Z,3.80
2018-09-12T11:49:58.910Z,7.50
2018-09-12T11:52:27.354Z,5.07
2018-09-12T11:54:55.639Z,4.87
2018-09-12T11:57:24.070Z,3.92
2018-09-12T11:59:52.423Z,3.75
2018-09-12T12:02:26.997Z,5.05
2018-09-12T12:04:55.258Z,5.47
2018-09-12T12:07:23.590Z,4.00
2018-09-12T12:09:52.054Z,5.55
2018-09-12T12:12:20.439Z,5.90
2018-09-12T12:14:48.702Z,4.65
2018-09-12T12:17:17.248Z,3.90
2018-09-12T12:19:45.594Z,4.33
2018-09-12T12:22:13.980Z,5.20
2018-09-12T12:24:42.503Z,8.83
2018-09-12T12:27:10.927Z,5.67
2018-09-12T12:29:39.169Z,9.43
2018-09-12T12:32:07.990Z,4.25
2018-09-12T12:34:36.351Z,4.10
2018-09-12T12:37:04.676Z,4.87
2018-09-12T12:39:33.488Z,5.90
2018-09-12T12:42:02.108Z,4.30
2018-09-12T12:44:30.638Z,4.43
2018-09-12T12:46:58.893Z,5.22
2018-09-12T12:49:27.130Z,3.98
2018-09-12T12:51:55.706Z,3.17
2018-09-12T12:54:24.253Z,5.80
2018-09-12T12:56:52.760Z,5.42
2018-09-12T12:59:21.118Z,3.42
2018-09-12T13:01:49.412Z,4.15
2018-09-12T13:04:17.647Z,4.45
2018-09-12T13:06:45.921Z,3.20
2018-09-12T13:09:14.320Z,6.00
2018-09-12T13:11:42.539Z,4.45
2018-09-12T13:14:11.372Z,4.90
2018-09-12T13:16:39.748Z,3.72
2018-09-12T13:19:08.061Z,4.58
2018-09-12T13:21:36.444Z,7.53
2018-09-12T13:24:04.803Z,3.50
2018-09-12T13:26:33.621Z,4.50
2018-09-12T13:29:02.566Z,7.20
2018-09-12T13:31:31.095Z,6.65
2018-09-12T13:33:59.369Z,8.28
2018-09-12T13:36:27.658Z,3.98
2018-09-12T13:38:56.393Z,5.28
2018-09-12T13:41:24.651Z,6.67
2018-09-12T13:43:52.962Z,4.45
2018-09-12T13:46:21.257Z,3.10
2018-09-12T13:48:49.480Z,4.12
2018-09-12T13:51:17.840Z,4.22
2018-09-12T13:53:46.091Z,5.30
2018-09-12T13:56:14.315Z,4.30
2018-09-12T13:58:42.565Z,8.35
2018-09-12T14:01:10.832Z,4.63
2018-09-12T14:03:39.108Z,5.72
2018-09-12T14:06:07.341Z,6.53
2018-09-12T14:08:35.585Z,5.20
2018-09-12T14:11:03.812Z,6.75
2018-09-12T14:13:32.059Z,5.60
2018-09-12T14:16:00.383Z,8.55
2018-09-12T14:18:28.830Z,10.72
2018-09-12T14:20:57.146Z,4.67
2018-09-12T14:23:25.566Z,6.30
2018-09-12T14:25:53.842Z,8.00
2018-09-12T14:28:22.356Z,4.35
2018-09-12T14:30:50.956Z,8.63
2018-09-12T14:33:19.410Z,9.18
2018-09-12T14:35:48.120Z,6.25
2018-09-12T14:38:16.525Z,6.28
2018-09-12T14:40:44.858Z,7.97
2018-09-12T14:43:13.873Z,7.93
2018-09-12T14:45:42.224Z,8.50
2018-09-12T14:48:10.544Z,10.23
2018-09-12T14:50:39.359Z,15.80
2018-09-12T14:53:07.576Z,10.67
2018-09-12T14:55:36.074Z,11.33
2018-09-12T14:58:04.717Z,8.13
2018-09-12T15:00:32.975Z,10.70
2018-09-12T15:03:01.234Z,11.87
2018-09-12T15:05:29.921Z,11.77
2018-09-12T15:07:58.147Z,11.87
2018-09-12T15:10:26.621Z,9.33
2018-09-12T15:12:54.877Z,8.03
2018-09-12T15:15:23.181Z,12.43
2018-09-12T15:17:51.809Z,9.70
2018-09-12T15:20:20.513Z,12.27
2018-09-12T15:22:48.968Z,10.43
2018-09-12T15:25:17.592Z,14.83
2018-09-12T15:27:45.988Z,10.60
2018-09-12T15:30:14.476Z,9.77
2018-09-12T15:32:43.090Z,11.13
2018-09-12T15:35:11.411Z,8.87
2018-09-12T15:37:39.941Z,11.23
2018-09-12T15:40:08.806Z,10.77
2018-09-12T15:42:37.618Z,12.13
2018-09-12T15:45:06.138Z,13.33
2018-09-12T15:47:34.851Z,16.40
2018-09-12T15:50:03.178Z,13.93
2018-09-12T15:52:31.425Z,15.80
2018-09-12T15:54:59.705Z,17.83
2018-09-12T15:57:28.042Z,16.60
2018-09-12T15:59:58.264Z,18.07
2018-09-12T16:02:27.223Z,20.07
2018-09-12T16:04:55.585Z,19.10
2018-09-12T16:07:24.360Z,18.10
2018-09-12T16:09:52.817Z,16.73
2018-09-12T16:12:21.357Z,18.87
2018-09-12T16:14:49.682Z,17.90
2018-09-12T16:17:18.509Z,15.47
2018-09-12T16:19:46.835Z,16.87
2018-09-12T16:22:16.675Z,17.87
2018-09-12T16:24:45.027Z,17.10
2018-09-12T16:27:13.308Z,20.07
2018-09-12T16:29:41.658Z,17.53
2018-09-12T16:32:09.989Z,17.27
2018-09-12T16:34:38.302Z,19.33
2018-09-12T16:37:06.602Z,22.53
2018-09-12T16:39:34.951Z,22.77
2018-09-12T16:42:03.236Z,22.37
2018-09-12T16:44:31.579Z,21.63
2018-09-12T16:46:59.845Z,22.03
2018-09-12T16:49:28.276Z,26.53
2018-09-12T16:51:56.562Z,22.13
2018-09-12T16:54:25.012Z,22.27
2018-09-12T16:56:53.776Z,22.10
2018-09-12T16:59:22.155Z,25.60
2018-09-12T17:01:50.482Z,23.10
2018-09-12T17:04:18.782Z,24.37
2018-09-12T17:06:47.049Z,24.27
2018-09-12T17:09:15.366Z,26.43
2018-09-12T17:11:43.697Z,29.27
2018-09-12T17:14:11.947Z,27.07
2018-09-12T17:16:40.185Z,24.43
2018-09-12T17:19:08.513Z,26.73
2018-09-12T17:21:36.705Z,27.87
2018-09-12T17:24:04.958Z,27.63
2018-09-12T17:26:33.269Z,23.40
2018-09-12T17:29:01.930Z,25.03
2018-09-12T17:31:30.240Z,25.10
2018-09-12T17:33:58.709Z,27.40
2018-09-12T17:36:28.008Z,25.00
2018-09-12T17:38:56.963Z,21.97
2018-09-12T17:41:25.527Z,21.63
2018-09-12T17:43:53.794Z,24.07
2018-09-12T17:46:22.301Z,22.17
2018-09-12T17:48:50.544Z,18.93
2018-09-12T17:51:18.878Z,14.87
2018-09-12T17:53:47.532Z,14.93
2018-09-12T17:56:15.829Z,14.67
2018-09-12T17:58:44.158Z,12.83
2018-09-12T18:01:12.662Z,13.00
2018-09-12T18:03:40.927Z,8.97
2018-09-12T18:06:09.206Z,8.27
2018-09-12T18:08:37.424Z,11.60
2018-09-12T18:11:05.752Z,15.33
2018-09-12T18:13:33.936Z,14.43
2018-09-12T18:16:02.243Z,7.97
2018-09-12T18:18:30.525Z,8.50
2018-09-12T18:20:58.773Z,8.17
2018-09-12T18:23:27.050Z,8.33
2018-09-12T18:25:55.439Z,9.10
2018-09-12T18:28:23.726Z,7.90
2018-09-12T18:30:52.066Z,8.37
2018-09-12T18:33:20.293Z,6.97
2018-09-12T18:35:48.485Z,9.33
2018-09-12T18:38:16.767Z,7.87
2018-09-12T18:40:45.112Z,8.43
2018-09-12T18:43:13.369Z,6.90
2018-09-12T18:45:41.649Z,4.60
2018-09-12T18:48:09.905Z,4.40
2018-09-12T18:50:38.164Z,6.33
2018-09-12T18:53:06.397Z,10.07
2018-09-12T18:55:35.038Z,8.20
2018-09-12T18:58:03.321Z,9.03
2018-09-12T19:00:31.572Z,4.90
2018-09-12T19:03:00.353Z,5.60
2018-09-12T19:05:29.074Z,3.40
2018-09-12T19:07:57.277Z,4.10
2018-09-12T19:10:25.518Z,5.20
2018-09-12T19:12:53.871Z,4.20
2018-09-12T19:15:22.056Z,3.10
2018-09-12T19:17:50.289Z,2.80
2018-09-12T19:20:18.527Z,2.23
2018-09-12T19:22:46.770Z,3.60
2018-09-12T19:25:14.995Z,3.13
2018-09-12T19:27:43.208Z,6.77
2018-09-12T19:30:11.460Z,3.67
2018-09-12T19:32:39.686Z,7.47
2018-09-12T19:35:07.907Z,4.30
2018-09-12T19:37:36.153Z,5.03
2018-09-12T19:40:04.432Z,3.60
2018-09-12T19:42:33.089Z,4.57
2018-09-12T19:45:01.373Z,6.40
2018-09-12T19:47:29.629Z,6.53
2018-09-12T19:49:57.955Z,4.83
2018-09-12T19:52:26.191Z,7.70
2018-09-12T19:54:54.456Z,4.77
2018-09-12T19:57:22.653Z,4.60
2018-09-12T19:59:50.909Z,6.63
2018-09-12T20:02:24.191Z,6.70
2018-09-12T20:04:52.902Z,6.23
2018-09-12T20:07:21.197Z,6.53
2018-09-12T20:09:49.927Z,4.70
2018-09-12T20:12:18.179Z,5.20
2018-09-12T20:14:46.404Z,10.83
2018-09-12T20:17:14.626Z,5.27
2018-09-12T20:19:42.859Z,4.20
2018-09-12T20:22:11.611Z,6.50
2018-09-12T20:24:39.917Z,5.57
2018-09-12T20:27:08.509Z,4.97
2018-09-12T20:29:37.112Z,6.90
2018-09-12T20:32:05.379Z,7.53
2018-09-12T20:34:33.739Z,8.00
2018-09-12T20:37:01.949Z,7.77
2018-09-12T20:39:31.230Z,10.77
2018-09-12T20:41:59.454Z,11.33
2018-09-12T20:44:27.705Z,7.93
2018-09-12T20:46:55.916Z,11.10
2018-09-12T20:49:24.133Z,10.00
2018-09-12T20:51:52.366Z,12.47
2018-09-12T20:54:20.635Z,11.43
2018-09-12T20:56:48.874Z,11.37
2018-09-12T20:59:17.093Z,9.93
2018-09-12T21:01:45.409Z,10.93
2018-09-12T21:04:13.647Z,11.13
2018-09-12T21:06:41.899Z,11.90
2018-09-12T21:09:12.046Z,12.03
2018-09-12T21:11:40.709Z,10.77
2018-09-12T21:14:09.493Z,13.60
2018-09-12T21:16:37.759Z,12.57
2018-09-12T21:19:06.599Z,12.27
2018-09-12T21:21:35.008Z,13.07
2018-09-12T21:24:03.285Z,12.93
2018-09-12T21:26:31.579Z,12.60
2018-09-12T21:28:59.995Z,12.10
2018-09-12T21:31:28.240Z,10.47
2018-09-12T21:33:56.509Z,13.33
2018-09-12T21:36:24.861Z,10.57
2018-09-12T21:38:53.410Z,11.80
2018-09-12T21:41:21.684Z,11.67
2018-09-12T21:43:49.956Z,12.27
2018-09-12T21:46:18.171Z,11.87
2018-09-12T21:48:46.423Z,12.67
2018-09-12T21:51:14.653Z,12.30
2018-09-12T21:53:42.906Z,9.37
2018-09-12T21:56:11.498Z,12.20
2018-09-12T21:58:39.796Z,11.17
2018-09-12T22:01:08.019Z,10.53
2018-09-12T22:03:36.265Z,12.20
2018-09-12T22:06:04.470Z,12.43
2018-09-12T22:08:32.694Z,12.10
2018-09-12T22:11:00.905Z,15.60
2018-09-12T22:13:29.147Z,14.27
2018-09-12T22:15:57.415Z,13.43
2018-09-12T22:18:25.629Z,12.23
2018-09-12T22:20:53.833Z,15.17
2018-09-12T22:23:22.054Z,13.57
2018-09-12T22:25:50.258Z,14.67
2018-09-12T22:28:18.561Z,15.00
2018-09-12T22:30:46.842Z,15.20
2018-09-12T22:33:15.133Z,14.77
2018-09-12T22:35:43.379Z,15.17
2018-09-12T22:38:11.598Z,13.57
2018-09-12T22:40:39.881Z,12.63
2018-09-12T22:43:08.146Z,12.40
2018-09-12T22:45:36.535Z,11.70
2018-09-12T22:48:04.905Z,14.93
2018-09-12T22:50:33.133Z,12.07
2018-09-12T22:53:01.399Z,11.70
2018-09-12T22:55:30.484Z,11.67
2018-09-12T22:57:58.709Z,12.47
2018-09-12T23:00:26.918Z,14.20
2018-09-12T23:02:55.265Z,12.83
2018-09-12T23:05:23.504Z,8.50
2018-09-12T23:07:51.744Z,9.53
2018-09-12T23:10:20.016Z,12.63
2018-09-12T23:12:48.545Z,9.50
2018-09-12T23:15:16.785Z,10.53
2018-09-12T23:17:45.091Z,9.80
2018-09-12T23:20:13.366Z,11.50
2018-09-12T23:22:41.637Z,10.37
2018-09-12T23:25:09.910Z,7.57
2018-09-12T23:27:44.771Z,15.60
2018-09-12T23:30:13.023Z,9.30
2018-09-12T23:32:41.283Z,8.70
2018-09-12T23:35:09.542Z,8.10
2018-09-12T23:37:37.776Z,12.33
2018-09-12T23:40:06.070Z,8.87
2018-09-12T23:42:34.285Z,12.90
2018-09-12T23:45:02.501Z,8.83
2018-09-12T23:47:30.737Z,13.57
2018-09-12T23:49:58.998Z,10.90
2018-09-12T23:52:27.241Z,10.03
2018-09-12T23:54:55.459Z,12.63
2018-09-12T23:57:23.732Z,10.20
2018-09-12T23:59:51.951Z,12.50
